METAR Data
IDs: Format: Raw Decoded Include TAF

Data at: 1445 UTC 11 Dec 2018

KHQZ 111350Z 16004KT 10SM CLR 01/M00 A3036
KHQZ 111250Z 15004KT 10SM CLR 00/M01 A3036
KHQZ 111235Z AUTO 16004KT 10SM CLR 00/00 A3036 RMK AO1 T00001005
KHQZ 111215Z AUTO 16005KT 10SM CLR 00/M01 A3036 RMK AO1 T10011007
KHQZ 111155Z AUTO 16005KT 10SM CLR 00/M01 A3035 RMK AO1 60001 70001 T00001007 10027 21004
KHQZ 111135Z AUTO 15004KT 10SM CLR 00/M01 A3035 RMK AO1 T10031008
KHQZ 111115Z AUTO 18005KT 10SM CLR 00/M01 A3035 RMK AO1 T10011010
KHQZ 111055Z AUTO 19005KT 10SM CLR 00/M01 A3035 RMK AO1 T00001008
KHQZ 111035Z AUTO 16005KT 10SM CLR 01/00 A3034 RMK AO1 T00110003
KHQZ 111015Z AUTO 16004KT 10SM CLR 01/00 A3035 RMK AO1 T00051004
KHQZ 110955Z AUTO 00000KT 10SM CLR 01/00 A3035 RMK AO1 T00070000
KHQZ 110935Z AUTO 15004KT 10SM CLR 01/00 A3036 RMK AO1 T00100000
KHQZ 110915Z AUTO 14003KT 10SM CLR 01/00 A3037 RMK AO1 T00100000
KHQZ 110855Z AUTO 18005KT 10SM CLR 01/00 A3037 RMK AO1 60001 T00051004
KHQZ 110835Z AUTO 19005KT 10SM CLR 01/00 A3037 RMK AO1 T00061002
KHQZ 110815Z AUTO 16003KT 10SM CLR 02/00 A3036 RMK AO1 T00150004
KHQZ 110755Z AUTO 14003KT 10SM CLR 02/00 A3037 RMK AO1 P0001 T00180004
KHQZ 110735Z AUTO 14004KT 10SM CLR 02/00 A3037 RMK AO1 P0001 T00150000
KHQZ 110715Z AUTO 18003KT 10SM CLR 03/00 A3037 RMK AO1 T00260000
KHQZ 110655Z AUTO 17003KT 10SM CLR 02/00 A3038 RMK AO1 T00200002
KHQZ 110635Z AUTO 15003KT 10SM CLR 03/00 A3037 RMK AO1 T00250002
KHQZ 110615Z AUTO 14004KT 10SM CLR 02/00 A3037 RMK AO1 T00210003
KHQZ 110555Z AUTO 17005KT 10SM CLR 02/00 A3038 RMK AO1 T00200000 10086 20020 401351009
KHQZ 110535Z AUTO 17003KT 10SM CLR 03/00 A3037 RMK AO1 T00300000
KHQZ 110515Z AUTO 14003KT 10SM CLR 04/01 A3037 RMK AO1 T00350005
KHQZ 110455Z AUTO 16004KT 10SM CLR 04/01 A3037 RMK AO1 T00370005
KHQZ 110435Z AUTO 16004KT 10SM CLR 03/00 A3037 RMK AO1 T00331001
KHQZ 110415Z AUTO 17004KT 10SM CLR 03/00 A3037 RMK AO1 T00310000
KHQZ 110355Z AUTO 16004KT 10SM CLR 04/00 A3037 RMK AO1 T00400000
KHQZ 110335Z AUTO 16004KT 10SM CLR 05/00 A3037 RMK AO1 T00490002
KHQZ 110315Z AUTO 15003KT 10SM CLR 05/00 A3037 RMK AO1 T00510003
KHQZ 110255Z AUTO 16004KT 10SM CLR 05/00 A3037 RMK AO1 T00490002
KHQZ 110150Z 00000KT 10SM CLR 07/00 A3037
KHQZ 110050Z 00000KT 10SM CLR 07/00 A3036
KHQZ 102350Z 00000KT 10SM CLR 09/M01 A3034
KHQZ 102250Z 00000KT 10SM CLR 13/M04 A3034
KHQZ 102150Z 00000KT 10SM CLR 13/M03 A3034
KHQZ 102050Z 00000KT 10SM CLR 13/M03 A3034
KHQZ 101950Z 00000KT 10SM CLR 13/M03 A3035
KHQZ 101850Z 00000KT 10SM CLR 11/M04 A3037
KHQZ 101750Z 00000KT 10SM CLR 11/M02 A3040
KHQZ 101650Z 00000KT 10SM CLR 08/00 A3042
KHQZ 101550Z 00000KT 10SM CLR 06/01 A3042
KHQZ 101450Z 36003KT 10SM CLR 03/01 A3040
KHQZ 101350Z 00000KT 10SM CLR 00/M01 A3039
KHQZ 101250Z 00000KT 10SM CLR 00/M01 A3038
KHQZ 101235Z AUTO 00000KT 10SM CLR 00/M01 A3037 RMK AO1 T00011013
KHQZ 101215Z AUTO 27005KT 10SM CLR 01/00 A3036 RMK AO1 T00081005
KHQZ 101155Z AUTO 31004KT 10SM CLR 01/00 A3035 RMK AO1 60009 70009 T00091005 10031 20005
KHQZ 101140Z AUTO 28004KT 10SM CLR 01/00 A3035 RMK AO1 T00071005
KHQZ 101115Z AUTO 00000KT 10SM CLR 01/00 A3035 RMK AO1 T00051005
KHQZ 101055Z AUTO 30004KT 10SM CLR 01/00 A3035 RMK AO1 P0002 T00121002
KHQZ 101035Z AUTO 28006KT 10SM CLR 01/00 A3035 RMK AO1 P0002 T00131002
KHQZ 101015Z AUTO 27007KT 10SM CLR 02/00 A3035 RMK AO1 T00151003
KHQZ 100955Z AUTO 28005KT 10SM CLR 01/M01 A3035 RMK AO1 P0001 T00131007
KHQZ 100935Z AUTO 30004KT 10SM CLR 02/M01 A3035 RMK AO1 T00161008
KHQZ 100915Z AUTO 30003KT 10SM CLR 02/M01 A3035 RMK AO1 T00171007
KHQZ 100855Z AUTO 30005KT 10SM CLR 02/00 A3036 RMK AO1 P0003 60005 T00161005
KHQZ 100835Z AUTO 29003KT 10SM CLR 02/M01 A3036 RMK AO1 P0003 T00201008
KHQZ 100815Z AUTO 00000KT 10SM CLR 02/M01 A3035 RMK AO1 P0003 T00151009
KHQZ 100755Z AUTO 00000KT 10SM CLR 02/M01 A3036 RMK AO1 P0002 T00211007
KHQZ 100735Z AUTO 31003KT 10SM CLR 03/M01 A3035 RMK AO1 T00251010
KHQZ 100715Z AUTO 00000KT 10SM CLR 02/M01 A3035 RMK AO1 T00201010
KHQZ 100655Z AUTO 32004KT 10SM CLR 02/M01 A3036 RMK AO1 T00241009
KHQZ 100635Z AUTO 32004KT 10SM CLR 03/M01 A3036 RMK AO1 T00261009
KHQZ 100615Z AUTO 31005KT 10SM CLR 03/M01 A3037 RMK AO1 T00261007
KHQZ 100555Z AUTO 31004KT 10SM CLR 03/M01 A3037 RMK AO1 T00311007 10073 20030 401050028
KHQZ 100535Z AUTO 31004KT 10SM CLR 03/M01 A3037 RMK AO1 T00311007
KHQZ 100520Z AUTO 32004KT 10SM CLR 03/M01 A3037 RMK AO1 T00321010
KHQZ 100455Z AUTO 00000KT 10SM CLR 04/M01 A3037 RMK AO1 T00351010
KHQZ 100435Z AUTO 00000KT 10SM CLR 04/M01 A3038 RMK AO1 T00371010
KHQZ 100415Z AUTO 31006KT 10SM CLR 05/M01 A3037 RMK AO1 T00471012
KHQZ 100355Z AUTO 30006KT 10SM CLR 05/M01 A3037 RMK AO1 T00501014
KHQZ 100335Z AUTO 30005KT 10SM CLR 05/M01 A3036 RMK AO1 T00501011
KHQZ 100315Z AUTO 31007KT 10SM CLR 05/M01 A3036 RMK AO1 T00521008
KHQZ 100255Z AUTO 31007KT 10SM CLR 05/00 A3035 RMK AO1 T00531005